sensor_id;sensor_type;location;lat;lon;timestamp;P1;durP1;ratioP1;P2;durP2;ratioP2
20065;SDS011;10193;48.884;9.182;2022-12-10T00:02:06;11.87;;;10.53;;
20065;SDS011;10193;48.884;9.182;2022-12-10T00:04:34;11.33;;;10.13;;
20065;SDS011;10193;48.884;9.182;2022-12-10T00:07:00;12.00;;;10.67;;
20065;SDS011;10193;48.884;9.182;2022-12-10T00:09:27;11.40;;;10.20;;
20065;SDS011;10193;48.884;9.182;2022-12-10T00:11:54;11.37;;;10.17;;
20065;SDS011;10193;48.884;9.182;2022-12-10T00:14:21;11.33;;;9.93;;
20065;SDS011;10193;48.884;9.182;2022-12-10T00:16:47;11.83;;;10.53;;
20065;SDS011;10193;48.884;9.182;2022-12-10T00:19:14;14.10;;;11.27;;
20065;SDS011;10193;48.884;9.182;2022-12-10T00:21:42;11.17;;;10.03;;
20065;SDS011;10193;48.884;9.182;2022-12-10T00:24:09;11.70;;;10.47;;
20065;SDS011;10193;48.884;9.182;2022-12-10T00:26:37;12.40;;;10.63;;
20065;SDS011;10193;48.884;9.182;2022-12-10T00:29:05;13.00;;;10.27;;
20065;SDS011;10193;48.884;9.182;2022-12-10T00:31:34;11.40;;;10.20;;
20065;SDS011;10193;48.884;9.182;2022-12-10T00:34:05;11.57;;;10.20;;
20065;SDS011;10193;48.884;9.182;2022-12-10T00:36:34;11.20;;;10.00;;
20065;SDS011;10193;48.884;9.182;2022-12-10T00:39:04;11.87;;;9.40;;
20065;SDS011;10193;48.884;9.182;2022-12-10T00:41:31;12.97;;;10.27;;
20065;SDS011;10193;48.884;9.182;2022-12-10T00:43:58;11.73;;;10.27;;
20065;SDS011;10193;48.884;9.182;2022-12-10T00:46:25;11.67;;;10.40;;
20065;SDS011;10193;48.884;9.182;2022-12-10T00:48:51;13.43;;;10.70;;
20065;SDS011;10193;48.884;9.182;2022-12-10T00:51:19;12.60;;;10.53;;
20065;SDS011;10193;48.884;9.182;2022-12-10T00:53:47;12.37;;;10.87;;
20065;SDS011;10193;48.884;9.182;2022-12-10T00:56:17;11.90;;;10.37;;
20065;SDS011;10193;48.884;9.182;2022-12-10T00:58:46;11.60;;;10.40;;
20065;SDS011;10193;48.884;9.182;2022-12-10T01:01:15;11.37;;;10.17;;
20065;SDS011;10193;48.884;9.182;2022-12-10T01:03:43;12.10;;;10.23;;
20065;SDS011;10193;48.884;9.182;2022-12-10T01:06:11;11.33;;;10.13;;
20065;SDS011;10193;48.884;9.182;2022-12-10T01:08:39;12.13;;;10.67;;
20065;SDS011;10193;48.884;9.182;2022-12-10T01:11:07;12.00;;;10.17;;
20065;SDS011;10193;48.884;9.182;2022-12-10T01:13:35;11.70;;;10.47;;
20065;SDS011;10193;48.884;9.182;2022-12-10T01:16:02;11.90;;;10.70;;
20065;SDS011;10193;48.884;9.182;2022-12-10T01:18:30;12.03;;;10.73;;
20065;SDS011;10193;48.884;9.182;2022-12-10T01:21:00;11.93;;;10.13;;
20065;SDS011;10193;48.884;9.182;2022-12-10T01:23:27;11.57;;;10.33;;
20065;SDS011;10193;48.884;9.182;2022-12-10T01:25:54;11.57;;;10.23;;
20065;SDS011;10193;48.884;9.182;2022-12-10T01:28:25;11.40;;;9.80;;
20065;SDS011;10193;48.884;9.182;2022-12-10T01:30:55;11.60;;;10.40;;
20065;SDS011;10193;48.884;9.182;2022-12-10T01:33:21;12.13;;;10.73;;
20065;SDS011;10193;48.884;9.182;2022-12-10T01:35:48;12.33;;;10.60;;
20065;SDS011;10193;48.884;9.182;2022-12-10T01:38:15;12.60;;;10.87;;
20065;SDS011;10193;48.884;9.182;2022-12-10T01:40:41;12.10;;;10.70;;
20065;SDS011;10193;48.884;9.182;2022-12-10T01:43:09;11.97;;;10.53;;
20065;SDS011;10193;48.884;9.182;2022-12-10T01:45:39;11.33;;;10.10;;
20065;SDS011;10193;48.884;9.182;2022-12-10T01:48:07;11.07;;;9.80;;
20065;SDS011;10193;48.884;9.182;2022-12-10T01:50:34;11.03;;;9.63;;
20065;SDS011;10193;48.884;9.182;2022-12-10T01:53:00;12.40;;;10.10;;
20065;SDS011;10193;48.884;9.182;2022-12-10T01:55:40;11.40;;;9.63;;
20065;SDS011;10193;48.884;9.182;2022-12-10T01:58:13;10.77;;;9.57;;
20065;SDS011;10193;48.884;9.182;2022-12-10T02:00:43;11.27;;;9.63;;
20065;SDS011;10193;48.884;9.182;2022-12-10T02:03:18;13.40;;;10.10;;
20065;SDS011;10193;48.884;9.182;2022-12-10T02:05:51;11.53;;;10.33;;
20065;SDS011;10193;48.884;9.182;2022-12-10T02:08:24;11.00;;;9.70;;
20065;SDS011;10193;48.884;9.182;2022-12-10T02:10:58;11.93;;;10.00;;
20065;SDS011;10193;48.884;9.182;2022-12-10T02:13:31;10.83;;;9.73;;
20065;SDS011;10193;48.884;9.182;2022-12-10T02:16:06;11.47;;;10.27;;
20065;SDS011;10193;48.884;9.182;2022-12-10T02:18:40;10.47;;;9.33;;
20065;SDS011;10193;48.884;9.182;2022-12-10T02:21:11;11.27;;;9.70;;
20065;SDS011;10193;48.884;9.182;2022-12-10T02:23:43;12.60;;;9.83;;
20065;SDS011;10193;48.884;9.182;2022-12-10T02:26:15;11.03;;;9.77;;
20065;SDS011;10193;48.884;9.182;2022-12-10T02:28:48;12.40;;;9.73;;
20065;SDS011;10193;48.884;9.182;2022-12-10T02:31:23;11.67;;;10.43;;
20065;SDS011;10193;48.884;9.182;2022-12-10T02:33:55;10.60;;;9.50;;
20065;SDS011;10193;48.884;9.182;2022-12-10T02:36:24;11.70;;;10.00;;
20065;SDS011;10193;48.884;9.182;2022-12-10T02:38:54;11.63;;;9.90;;
20065;SDS011;10193;48.884;9.182;2022-12-10T02:41:24;11.33;;;10.00;;
20065;SDS011;10193;48.884;9.182;2022-12-10T02:43:56;11.40;;;9.97;;
20065;SDS011;10193;48.884;9.182;2022-12-10T02:46:26;11.10;;;9.73;;
20065;SDS011;10193;48.884;9.182;2022-12-10T02:48:55;10.77;;;9.67;;
20065;SDS011;10193;48.884;9.182;2022-12-10T02:51:23;11.43;;;9.33;;
20065;SDS011;10193;48.884;9.182;2022-12-10T02:53:57;11.23;;;9.73;;
20065;SDS011;10193;48.884;9.182;2022-12-10T02:56:26;10.97;;;9.87;;
20065;SDS011;10193;48.884;9.182;2022-12-10T02:59:01;10.70;;;9.50;;
20065;SDS011;10193;48.884;9.182;2022-12-10T03:01:41;11.83;;;10.23;;
20065;SDS011;10193;48.884;9.182;2022-12-10T03:04:16;11.33;;;10.13;;
20065;SDS011;10193;48.884;9.182;2022-12-10T03:06:50;12.47;;;9.80;;
20065;SDS011;10193;48.884;9.182;2022-12-10T03:09:22;11.60;;;9.73;;
20065;SDS011;10193;48.884;9.182;2022-12-10T03:11:52;11.37;;;10.17;;
20065;SDS011;10193;48.884;9.182;2022-12-10T03:14:25;12.23;;;10.83;;
20065;SDS011;10193;48.884;9.182;2022-12-10T03:16:58;11.03;;;9.93;;
20065;SDS011;10193;48.884;9.182;2022-12-10T03:19:26;10.90;;;9.70;;
20065;SDS011;10193;48.884;9.182;2022-12-10T03:21:57;10.97;;;9.83;;
20065;SDS011;10193;48.884;9.182;2022-12-10T03:24:26;11.30;;;9.83;;
20065;SDS011;10193;48.884;9.182;2022-12-10T03:26:53;11.53;;;9.33;;
20065;SDS011;10193;48.884;9.182;2022-12-10T03:29:23;11.33;;;10.13;;
20065;SDS011;10193;48.884;9.182;2022-12-10T03:31:53;11.17;;;9.97;;
20065;SDS011;10193;48.884;9.182;2022-12-10T03:34:22;11.70;;;10.17;;
20065;SDS011;10193;48.884;9.182;2022-12-10T03:36:49;12.13;;;10.40;;
20065;SDS011;10193;48.884;9.182;2022-12-10T03:39:17;11.07;;;9.93;;
20065;SDS011;10193;48.884;9.182;2022-12-10T03:41:44;11.30;;;9.50;;
20065;SDS011;10193;48.884;9.182;2022-12-10T03:44:11;11.67;;;10.03;;
20065;SDS011;10193;48.884;9.182;2022-12-10T03:46:38;13.13;;;10.63;;
20065;SDS011;10193;48.884;9.182;2022-12-10T03:49:05;11.10;;;9.90;;
20065;SDS011;10193;48.884;9.182;2022-12-10T03:51:33;11.17;;;9.83;;
20065;SDS011;10193;48.884;9.182;2022-12-10T03:53:59;10.90;;;9.77;;
20065;SDS011;10193;48.884;9.182;2022-12-10T03:56:26;10.77;;;9.67;;
20065;SDS011;10193;48.884;9.182;2022-12-10T03:58:53;11.83;;;9.97;;
20065;SDS011;10193;48.884;9.182;2022-12-10T04:01:19;11.67;;;10.03;;
20065;SDS011;10193;48.884;9.182;2022-12-10T04:03:46;11.10;;;9.83;;
20065;SDS011;10193;48.884;9.182;2022-12-10T04:06:14;12.10;;;10.50;;
20065;SDS011;10193;48.884;9.182;2022-12-10T04:08:43;11.67;;;10.00;;
20065;SDS011;10193;48.884;9.182;2022-12-10T04:11:10;12.10;;;10.20;;
20065;SDS011;10193;48.884;9.182;2022-12-10T04:13:38;11.47;;;9.93;;
20065;SDS011;10193;48.884;9.182;2022-12-10T04:16:23;10.83;;;9.73;;
20065;SDS011;10193;48.884;9.182;2022-12-10T04:18:54;10.60;;;9.43;;
20065;SDS011;10193;48.884;9.182;2022-12-10T04:21:21;11.13;;;9.93;;
20065;SDS011;10193;48.884;9.182;2022-12-10T04:24:08;11.90;;;10.37;;
20065;SDS011;10193;48.884;9.182;2022-12-10T04:26:52;11.43;;;10.20;;
20065;SDS011;10193;48.884;9.182;2022-12-10T04:29:20;12.30;;;10.17;;
20065;SDS011;10193;48.884;9.182;2022-12-10T04:31:47;11.27;;;10.07;;
20065;SDS011;10193;48.884;9.182;2022-12-10T04:34:14;12.47;;;10.13;;
20065;SDS011;10193;48.884;9.182;2022-12-10T04:36:41;11.50;;;10.30;;
20065;SDS011;10193;48.884;9.182;2022-12-10T04:39:09;12.30;;;10.13;;
20065;SDS011;10193;48.884;9.182;2022-12-10T04:41:37;11.17;;;9.97;;
20065;SDS011;10193;48.884;9.182;2022-12-10T04:44:04;12.47;;;10.47;;
20065;SDS011;10193;48.884;9.182;2022-12-10T04:46:31;11.37;;;10.17;;
20065;SDS011;10193;48.884;9.182;2022-12-10T04:48:58;12.40;;;10.47;;
20065;SDS011;10193;48.884;9.182;2022-12-10T04:51:25;12.87;;;10.63;;
20065;SDS011;10193;48.884;9.182;2022-12-10T04:53:51;12.00;;;10.80;;
20065;SDS011;10193;48.884;9.182;2022-12-10T04:56:19;12.97;;;10.57;;
20065;SDS011;10193;48.884;9.182;2022-12-10T04:58:46;11.33;;;9.70;;
20065;SDS011;10193;48.884;9.182;2022-12-10T05:01:13;11.70;;;10.00;;
20065;SDS011;10193;48.884;9.182;2022-12-10T05:03:39;12.57;;;10.30;;
20065;SDS011;10193;48.884;9.182;2022-12-10T05:06:07;12.53;;;10.87;;
20065;SDS011;10193;48.884;9.182;2022-12-10T05:08:35;11.13;;;9.93;;
20065;SDS011;10193;48.884;9.182;2022-12-10T05:11:03;12.00;;;10.13;;
20065;SDS011;10193;48.884;9.182;2022-12-10T05:13:33;12.10;;;10.73;;
20065;SDS011;10193;48.884;9.182;2022-12-10T05:16:00;11.60;;;10.10;;
20065;SDS011;10193;48.884;9.182;2022-12-10T05:18:27;12.53;;;10.67;;
20065;SDS011;10193;48.884;9.182;2022-12-10T05:20:54;13.00;;;10.40;;
20065;SDS011;10193;48.884;9.182;2022-12-10T05:23:23;12.67;;;10.70;;
20065;SDS011;10193;48.884;9.182;2022-12-10T05:25:58;11.77;;;10.17;;
20065;SDS011;10193;48.884;9.182;2022-12-10T05:28:26;13.10;;;10.60;;
20065;SDS011;10193;48.884;9.182;2022-12-10T05:30:55;12.70;;;11.00;;
20065;SDS011;10193;48.884;9.182;2022-12-10T05:33:22;13.60;;;10.87;;
20065;SDS011;10193;48.884;9.182;2022-12-10T05:35:53;11.60;;;10.40;;
20065;SDS011;10193;48.884;9.182;2022-12-10T05:38:21;11.63;;;10.40;;
20065;SDS011;10193;48.884;9.182;2022-12-10T05:40:48;11.77;;;10.40;;
20065;SDS011;10193;48.884;9.182;2022-12-10T05:43:15;11.73;;;10.53;;
20065;SDS011;10193;48.884;9.182;2022-12-10T05:45:42;12.47;;;10.90;;
20065;SDS011;10193;48.884;9.182;2022-12-10T05:48:10;12.23;;;10.67;;
20065;SDS011;10193;48.884;9.182;2022-12-10T05:50:38;12.67;;;10.50;;
20065;SDS011;10193;48.884;9.182;2022-12-10T05:53:05;13.13;;;11.17;;
20065;SDS011;10193;48.884;9.182;2022-12-10T05:55:32;12.40;;;11.10;;
20065;SDS011;10193;48.884;9.182;2022-12-10T05:58:00;12.00;;;10.70;;
20065;SDS011;10193;48.884;9.182;2022-12-10T06:00:26;12.23;;;10.83;;
20065;SDS011;10193;48.884;9.182;2022-12-10T06:02:54;11.07;;;9.70;;
20065;SDS011;10193;48.884;9.182;2022-12-10T06:05:22;12.37;;;10.67;;
20065;SDS011;10193;48.884;9.182;2022-12-10T06:07:49;11.77;;;10.17;;
20065;SDS011;10193;48.884;9.182;2022-12-10T06:10:15;12.33;;;11.03;;
20065;SDS011;10193;48.884;9.182;2022-12-10T06:12:42;12.63;;;10.90;;
20065;SDS011;10193;48.884;9.182;2022-12-10T06:15:09;12.07;;;10.77;;
20065;SDS011;10193;48.884;9.182;2022-12-10T06:17:36;13.43;;;11.20;;
20065;SDS011;10193;48.884;9.182;2022-12-10T06:20:03;13.67;;;11.43;;
20065;SDS011;10193;48.884;9.182;2022-12-10T06:22:31;12.73;;;11.20;;
20065;SDS011;10193;48.884;9.182;2022-12-10T06:24:59;13.30;;;11.27;;
20065;SDS011;10193;48.884;9.182;2022-12-10T06:27:26;12.70;;;10.93;;
20065;SDS011;10193;48.884;9.182;2022-12-10T06:29:55;12.37;;;10.80;;
20065;SDS011;10193;48.884;9.182;2022-12-10T06:32:21;11.90;;;10.70;;
20065;SDS011;10193;48.884;9.182;2022-12-10T06:34:48;13.20;;;11.53;;
20065;SDS011;10193;48.884;9.182;2022-12-10T06:37:14;12.50;;;11.20;;
20065;SDS011;10193;48.884;9.182;2022-12-10T06:39:42;11.90;;;10.53;;
20065;SDS011;10193;48.884;9.182;2022-12-10T06:42:09;11.80;;;10.47;;
20065;SDS011;10193;48.884;9.182;2022-12-10T06:44:36;11.83;;;10.40;;
20065;SDS011;10193;48.884;9.182;2022-12-10T06:47:02;12.40;;;10.93;;
20065;SDS011;10193;48.884;9.182;2022-12-10T06:49:29;11.50;;;10.30;;
20065;SDS011;10193;48.884;9.182;2022-12-10T06:51:56;12.60;;;10.80;;
20065;SDS011;10193;48.884;9.182;2022-12-10T06:54:22;12.67;;;10.70;;
20065;SDS011;10193;48.884;9.182;2022-12-10T06:56:50;12.00;;;10.70;;
20065;SDS011;10193;48.884;9.182;2022-12-10T06:59:17;12.40;;;10.87;;
20065;SDS011;10193;48.884;9.182;2022-12-10T07:01:45;11.70;;;10.43;;
20065;SDS011;10193;48.884;9.182;2022-12-10T07:04:12;12.30;;;10.97;;
20065;SDS011;10193;48.884;9.182;2022-12-10T07:06:39;13.00;;;11.40;;
20065;SDS011;10193;48.884;9.182;2022-12-10T07:09:06;12.23;;;10.73;;
20065;SDS011;10193;48.884;9.182;2022-12-10T07:11:34;13.00;;;11.10;;
20065;SDS011;10193;48.884;9.182;2022-12-10T07:14:02;12.80;;;11.43;;
20065;SDS011;10193;48.884;9.182;2022-12-10T07:16:30;12.70;;;11.17;;
20065;SDS011;10193;48.884;9.182;2022-12-10T07:18:59;13.17;;;11.33;;
20065;SDS011;10193;48.884;9.182;2022-12-10T07:21:27;12.57;;;10.50;;
20065;SDS011;10193;48.884;9.182;2022-12-10T07:23:56;12.43;;;10.80;;
20065;SDS011;10193;48.884;9.182;2022-12-10T07:26:24;13.13;;;11.43;;
20065;SDS011;10193;48.884;9.182;2022-12-10T07:28:51;12.83;;;10.83;;
20065;SDS011;10193;48.884;9.182;2022-12-10T07:31:19;11.93;;;10.73;;
20065;SDS011;10193;48.884;9.182;2022-12-10T07:33:47;12.80;;;11.43;;
20065;SDS011;10193;48.884;9.182;2022-12-10T07:36:13;12.47;;;10.67;;
20065;SDS011;10193;48.884;9.182;2022-12-10T07:38:40;13.53;;;11.83;;
20065;SDS011;10193;48.884;9.182;2022-12-10T07:41:08;12.70;;;11.37;;
20065;SDS011;10193;48.884;9.182;2022-12-10T07:43:37;13.97;;;12.00;;
20065;SDS011;10193;48.884;9.182;2022-12-10T07:46:05;12.50;;;11.17;;
20065;SDS011;10193;48.884;9.182;2022-12-10T07:48:35;12.33;;;11.03;;
20065;SDS011;10193;48.884;9.182;2022-12-10T07:51:05;13.17;;;11.07;;
20065;SDS011;10193;48.884;9.182;2022-12-10T07:53:32;13.50;;;12.00;;
20065;SDS011;10193;48.884;9.182;2022-12-10T07:55:59;12.60;;;11.30;;
20065;SDS011;10193;48.884;9.182;2022-12-10T07:58:26;14.27;;;11.97;;
20065;SDS011;10193;48.884;9.182;2022-12-10T08:00:52;13.33;;;11.80;;
20065;SDS011;10193;48.884;9.182;2022-12-10T08:03:19;13.57;;;11.97;;
20065;SDS011;10193;48.884;9.182;2022-12-10T08:05:47;12.13;;;10.83;;
20065;SDS011;10193;48.884;9.182;2022-12-10T08:08:14;13.53;;;11.50;;
20065;SDS011;10193;48.884;9.182;2022-12-10T08:10:40;12.63;;;11.30;;
20065;SDS011;10193;48.884;9.182;2022-12-10T08:13:07;13.47;;;11.90;;
20065;SDS011;10193;48.884;9.182;2022-12-10T08:15:34;14.00;;;12.37;;
20065;SDS011;10193;48.884;9.182;2022-12-10T08:18:01;15.47;;;12.00;;
20065;SDS011;10193;48.884;9.182;2022-12-10T08:20:27;13.47;;;11.80;;
20065;SDS011;10193;48.884;9.182;2022-12-10T08:22:55;13.30;;;11.90;;
20065;SDS011;10193;48.884;9.182;2022-12-10T08:25:22;12.40;;;11.07;;
20065;SDS011;10193;48.884;9.182;2022-12-10T08:27:49;13.80;;;11.53;;
20065;SDS011;10193;48.884;9.182;2022-12-10T08:30:15;13.17;;;11.40;;
20065;SDS011;10193;48.884;9.182;2022-12-10T08:32:42;13.20;;;11.60;;
20065;SDS011;10193;48.884;9.182;2022-12-10T08:35:09;13.70;;;12.20;;
20065;SDS011;10193;48.884;9.182;2022-12-10T08:37:35;13.70;;;12.07;;
20065;SDS011;10193;48.884;9.182;2022-12-10T08:40:04;13.60;;;11.70;;
20065;SDS011;10193;48.884;9.182;2022-12-10T08:42:31;14.03;;;11.97;;
20065;SDS011;10193;48.884;9.182;2022-12-10T08:44:58;12.53;;;11.23;;
20065;SDS011;10193;48.884;9.182;2022-12-10T08:47:26;14.33;;;12.53;;
20065;SDS011;10193;48.884;9.182;2022-12-10T08:49:53;17.50;;;12.77;;
20065;SDS011;10193;48.884;9.182;2022-12-10T08:52:19;13.47;;;12.07;;
20065;SDS011;10193;48.884;9.182;2022-12-10T08:54:47;14.87;;;12.10;;
20065;SDS011;10193;48.884;9.182;2022-12-10T08:57:15;14.07;;;12.53;;
20065;SDS011;10193;48.884;9.182;2022-12-10T08:59:42;14.60;;;12.27;;
20065;SDS011;10193;48.884;9.182;2022-12-10T09:02:09;14.00;;;12.50;;
20065;SDS011;10193;48.884;9.182;2022-12-10T09:04:37;14.67;;;12.10;;
20065;SDS011;10193;48.884;9.182;2022-12-10T09:07:04;14.37;;;12.20;;
20065;SDS011;10193;48.884;9.182;2022-12-10T09:09:34;15.70;;;12.63;;
20065;SDS011;10193;48.884;9.182;2022-12-10T09:12:01;14.20;;;12.17;;
20065;SDS011;10193;48.884;9.182;2022-12-10T09:14:29;14.53;;;12.90;;
20065;SDS011;10193;48.884;9.182;2022-12-10T09:16:56;12.70;;;11.37;;
20065;SDS011;10193;48.884;9.182;2022-12-10T09:19:23;13.97;;;12.07;;
20065;SDS011;10193;48.884;9.182;2022-12-10T09:21:49;13.60;;;12.17;;
20065;SDS011;10193;48.884;9.182;2022-12-10T09:24:16;12.83;;;11.37;;
20065;SDS011;10193;48.884;9.182;2022-12-10T09:26:42;14.87;;;13.17;;
20065;SDS011;10193;48.884;9.182;2022-12-10T09:29:09;13.13;;;11.70;;
20065;SDS011;10193;48.884;9.182;2022-12-10T09:31:37;14.30;;;12.80;;
20065;SDS011;10193;48.884;9.182;2022-12-10T09:34:04;13.33;;;11.63;;
20065;SDS011;10193;48.884;9.182;2022-12-10T09:36:30;14.00;;;12.50;;
20065;SDS011;10193;48.884;9.182;2022-12-10T09:38:57;13.03;;;11.73;;
20065;SDS011;10193;48.884;9.182;2022-12-10T09:41:32;13.60;;;12.20;;
20065;SDS011;10193;48.884;9.182;2022-12-10T09:44:26;13.23;;;11.83;;
20065;SDS011;10193;48.884;9.182;2022-12-10T09:47:03;13.27;;;11.87;;
20065;SDS011;10193;48.884;9.182;2022-12-10T09:49:36;13.83;;;12.03;;
20065;SDS011;10193;48.884;9.182;2022-12-10T09:52:12;13.73;;;12.10;;
20065;SDS011;10193;48.884;9.182;2022-12-10T09:54:42;13.13;;;11.53;;
20065;SDS011;10193;48.884;9.182;2022-12-10T09:57:16;14.13;;;12.60;;
20065;SDS011;10193;48.884;9.182;2022-12-10T09:59:48;13.37;;;11.97;;
20065;SDS011;10193;48.884;9.182;2022-12-10T10:02:20;13.77;;;11.50;;
20065;SDS011;10193;48.884;9.182;2022-12-10T10:04:50;12.93;;;11.53;;
20065;SDS011;10193;48.884;9.182;2022-12-10T10:07:19;14.10;;;12.17;;
20065;SDS011;10193;48.884;9.182;2022-12-10T10:09:50;12.67;;;11.20;;
20065;SDS011;10193;48.884;9.182;2022-12-10T10:12:20;13.30;;;11.60;;
20065;SDS011;10193;48.884;9.182;2022-12-10T10:14:47;13.03;;;11.47;;
20065;SDS011;10193;48.884;9.182;2022-12-10T10:17:16;13.60;;;11.43;;
20065;SDS011;10193;48.884;9.182;2022-12-10T10:19:49;11.97;;;10.70;;
20065;SDS011;10193;48.884;9.182;2022-12-10T10:22:15;13.43;;;11.70;;
20065;SDS011;10193;48.884;9.182;2022-12-10T10:24:43;13.30;;;11.60;;
20065;SDS011;10193;48.884;9.182;2022-12-10T10:27:12;13.30;;;11.90;;
20065;SDS011;10193;48.884;9.182;2022-12-10T10:29:40;13.37;;;11.97;;
20065;SDS011;10193;48.884;9.182;2022-12-10T10:32:13;13.10;;;11.63;;
20065;SDS011;10193;48.884;9.182;2022-12-10T10:34:44;13.43;;;12.03;;
20065;SDS011;10193;48.884;9.182;2022-12-10T10:37:14;13.13;;;11.73;;
20065;SDS011;10193;48.884;9.182;2022-12-10T10:39:46;13.43;;;12.03;;
20065;SDS011;10193;48.884;9.182;2022-12-10T10:42:19;15.37;;;12.53;;
20065;SDS011;10193;48.884;9.182;2022-12-10T10:44:53;12.80;;;11.50;;
20065;SDS011;10193;48.884;9.182;2022-12-10T10:47:24;12.60;;;11.03;;
20065;SDS011;10193;48.884;9.182;2022-12-10T10:49:54;12.47;;;11.17;;
20065;SDS011;10193;48.884;9.182;2022-12-10T10:52:21;12.50;;;11.23;;
20065;SDS011;10193;48.884;9.182;2022-12-10T10:54:48;13.23;;;11.83;;
20065;SDS011;10193;48.884;9.182;2022-12-10T10:57:17;12.47;;;11.17;;
20065;SDS011;10193;48.884;9.182;2022-12-10T10:59:48;13.03;;;11.53;;
20065;SDS011;10193;48.884;9.182;2022-12-10T11:02:18;12.30;;;11.03;;
20065;SDS011;10193;48.884;9.182;2022-12-10T11:04:47;12.67;;;11.23;;
20065;SDS011;10193;48.884;9.182;2022-12-10T11:07:20;12.27;;;10.80;;
20065;SDS011;10193;48.884;9.182;2022-12-10T11:09:51;13.03;;;11.57;;
20065;SDS011;10193;48.884;9.182;2022-12-10T11:12:27;14.23;;;11.97;;
20065;SDS011;10193;48.884;9.182;2022-12-10T11:14:56;12.83;;;11.40;;
20065;SDS011;10193;48.884;9.182;2022-12-10T11:17:23;14.03;;;12.50;;
20065;SDS011;10193;48.884;9.182;2022-12-10T11:19:55;13.83;;;12.27;;
20065;SDS011;10193;48.884;9.182;2022-12-10T11:22:26;13.50;;;11.80;;
20065;SDS011;10193;48.884;9.182;2022-12-10T11:24:54;12.30;;;11.00;;
20065;SDS011;10193;48.884;9.182;2022-12-10T11:27:24;12.77;;;11.23;;
20065;SDS011;10193;48.884;9.182;2022-12-10T11:30:03;13.43;;;11.40;;
20065;SDS011;10193;48.884;9.182;2022-12-10T11:35:24;13.03;;;11.27;;
20065;SDS011;10193;48.884;9.182;2022-12-10T11:38:05;12.23;;;11.03;;
20065;SDS011;10193;48.884;9.182;2022-12-10T11:40:40;11.63;;;10.50;;
20065;SDS011;10193;48.884;9.182;2022-12-10T11:43:19;12.53;;;11.20;;
20065;SDS011;10193;48.884;9.182;2022-12-10T11:46:10;13.10;;;10.30;;
20065;SDS011;10193;48.884;9.182;2022-12-10T11:48:51;13.17;;;10.80;;
20065;SDS011;10193;48.884;9.182;2022-12-10T11:51:28;12.07;;;10.67;;
20065;SDS011;10193;48.884;9.182;2022-12-10T11:54:10;10.77;;;9.67;;
20065;SDS011;10193;48.884;9.182;2022-12-10T11:56:54;11.47;;;10.27;;
20065;SDS011;10193;48.884;9.182;2022-12-10T11:59:28;10.70;;;9.60;;
20065;SDS011;10193;48.884;9.182;2022-12-10T12:02:05;11.00;;;9.80;;
20065;SDS011;10193;48.884;9.182;2022-12-10T12:04:57;11.13;;;9.97;;
20065;SDS011;10193;48.884;9.182;2022-12-10T12:07:40;10.80;;;9.70;;
20065;SDS011;10193;48.884;9.182;2022-12-10T12:13:09;12.00;;;10.70;;
20065;SDS011;10193;48.884;9.182;2022-12-10T12:15:41;10.90;;;9.70;;
20065;SDS011;10193;48.884;9.182;2022-12-10T12:18:13;11.47;;;10.27;;
20065;SDS011;10193;48.884;9.182;2022-12-10T12:20:45;11.90;;;10.67;;
20065;SDS011;10193;48.884;9.182;2022-12-10T12:23:17;11.40;;;10.20;;
20065;SDS011;10193;48.884;9.182;2022-12-10T12:25:49;11.20;;;10.10;;
20065;SDS011;10193;48.884;9.182;2022-12-10T12:28:22;11.17;;;10.07;;
20065;SDS011;10193;48.884;9.182;2022-12-10T12:30:53;11.50;;;10.30;;
20065;SDS011;10193;48.884;9.182;2022-12-10T12:33:28;11.30;;;9.93;;
20065;SDS011;10193;48.884;9.182;2022-12-10T12:36:02;11.50;;;10.17;;
20065;SDS011;10193;48.884;9.182;2022-12-10T12:38:36;12.00;;;10.77;;
20065;SDS011;10193;48.884;9.182;2022-12-10T12:41:13;11.43;;;10.23;;
20065;SDS011;10193;48.884;9.182;2022-12-10T12:43:43;11.87;;;10.67;;
20065;SDS011;10193;48.884;9.182;2022-12-10T12:46:16;10.90;;;9.80;;
20065;SDS011;10193;48.884;9.182;2022-12-10T12:48:49;10.70;;;9.50;;
20065;SDS011;10193;48.884;9.182;2022-12-10T12:51:22;11.27;;;10.17;;
20065;SDS011;10193;48.884;9.182;2022-12-10T12:53:52;10.80;;;9.73;;
20065;SDS011;10193;48.884;9.182;2022-12-10T12:56:23;11.60;;;10.40;;
20065;SDS011;10193;48.884;9.182;2022-12-10T12:58:58;10.83;;;9.70;;
20065;SDS011;10193;48.884;9.182;2022-12-10T13:01:33;10.90;;;9.57;;
20065;SDS011;10193;48.884;9.182;2022-12-10T13:04:05;10.50;;;9.50;;
20065;SDS011;10193;48.884;9.182;2022-12-10T13:06:33;11.23;;;10.03;;
20065;SDS011;10193;48.884;9.182;2022-12-10T13:15:00;10.43;;;9.33;;
20065;SDS011;10193;48.884;9.182;2022-12-10T13:17:31;10.70;;;9.60;;
20065;SDS011;10193;48.884;9.182;2022-12-10T13:22:54;10.60;;;9.50;;
20065;SDS011;10193;48.884;9.182;2022-12-10T13:25:36;9.97;;;8.97;;
20065;SDS011;10193;48.884;9.182;2022-12-10T13:28:22;10.27;;;9.17;;
20065;SDS011;10193;48.884;9.182;2022-12-10T13:34:19;9.80;;;8.80;;
20065;SDS011;10193;48.884;9.182;2022-12-10T13:37:06;10.40;;;9.20;;
20065;SDS011;10193;48.884;9.182;2022-12-10T13:39:50;10.40;;;9.10;;
20065;SDS011;10193;48.884;9.182;2022-12-10T13:42:28;10.20;;;9.10;;
20065;SDS011;10193;48.884;9.182;2022-12-10T13:45:28;9.63;;;8.63;;
20065;SDS011;10193;48.884;9.182;2022-12-10T13:48:17;9.60;;;8.60;;
20065;SDS011;10193;48.884;9.182;2022-12-10T13:51:02;10.07;;;8.90;;
20065;SDS011;10193;48.884;9.182;2022-12-10T13:53:50;10.13;;;9.10;;
20065;SDS011;10193;48.884;9.182;2022-12-10T13:56:28;10.87;;;9.67;;
20065;SDS011;10193;48.884;9.182;2022-12-10T13:58:59;10.20;;;9.20;;
20065;SDS011;10193;48.884;9.182;2022-12-10T14:01:44;11.63;;;10.27;;
20065;SDS011;10193;48.884;9.182;2022-12-10T14:07:14;11.63;;;10.23;;
20065;SDS011;10193;48.884;9.182;2022-12-10T14:09:45;11.77;;;10.53;;
20065;SDS011;10193;48.884;9.182;2022-12-10T14:12:14;12.23;;;10.97;;
20065;SDS011;10193;48.884;9.182;2022-12-10T14:14:44;13.07;;;11.50;;
20065;SDS011;10193;48.884;9.182;2022-12-10T14:17:15;13.67;;;11.80;;
20065;SDS011;10193;48.884;9.182;2022-12-10T14:19:45;13.70;;;11.70;;
20065;SDS011;10193;48.884;9.182;2022-12-10T14:22:16;12.67;;;11.03;;
20065;SDS011;10193;48.884;9.182;2022-12-10T14:24:46;12.60;;;10.37;;
20065;SDS011;10193;48.884;9.182;2022-12-10T14:27:16;12.77;;;11.33;;
20065;SDS011;10193;48.884;9.182;2022-12-10T14:29:45;13.53;;;11.90;;
20065;SDS011;10193;48.884;9.182;2022-12-10T14:32:14;11.90;;;10.70;;
20065;SDS011;10193;48.884;9.182;2022-12-10T14:34:43;12.33;;;10.63;;
20065;SDS011;10193;48.884;9.182;2022-12-10T14:37:16;12.33;;;11.03;;
20065;SDS011;10193;48.884;9.182;2022-12-10T14:39:46;12.30;;;11.00;;
20065;SDS011;10193;48.884;9.182;2022-12-10T14:42:14;11.17;;;10.07;;
20065;SDS011;10193;48.884;9.182;2022-12-10T14:44:43;12.07;;;10.67;;
20065;SDS011;10193;48.884;9.182;2022-12-10T14:47:12;12.27;;;10.40;;
20065;SDS011;10193;48.884;9.182;2022-12-10T14:49:42;12.67;;;11.37;;
20065;SDS011;10193;48.884;9.182;2022-12-10T14:52:11;12.07;;;10.77;;
20065;SDS011;10193;48.884;9.182;2022-12-10T14:54:40;12.23;;;10.93;;
20065;SDS011;10193;48.884;9.182;2022-12-10T14:57:08;12.40;;;10.97;;
20065;SDS011;10193;48.884;9.182;2022-12-10T14:59:41;11.40;;;10.20;;
20065;SDS011;10193;48.884;9.182;2022-12-10T15:02:13;13.03;;;10.33;;